sensor_id;sensor_type;location;lat;lon;timestamp;P1;durP1;ratioP1;P2;durP2;ratioP2
17361;SDS011;8798;51.938;4.348;2023-06-26T00:00:05;6.63;;;3.38;;
17361;SDS011;8798;51.938;4.348;2023-06-26T00:02:35;4.75;;;2.90;;
17361;SDS011;8798;51.938;4.348;2023-06-26T00:05:04;5.22;;;2.95;;
17361;SDS011;8798;51.938;4.348;2023-06-26T00:07:33;4.10;;;2.95;;
17361;SDS011;8798;51.938;4.348;2023-06-26T00:10:01;6.75;;;3.28;;
17361;SDS011;8798;51.938;4.348;2023-06-26T00:12:30;5.22;;;2.50;;
17361;SDS011;8798;51.938;4.348;2023-06-26T00:14:58;5.78;;;2.60;;
17361;SDS011;8798;51.938;4.348;2023-06-26T00:17:26;4.75;;;2.30;;
17361;SDS011;8798;51.938;4.348;2023-06-26T00:19:56;3.88;;;2.50;;
17361;SDS011;8798;51.938;4.348;2023-06-26T00:22:24;5.68;;;2.42;;
17361;SDS011;8798;51.938;4.348;2023-06-26T00:24:52;4.90;;;2.28;;
17361;SDS011;8798;51.938;4.348;2023-06-26T00:27:20;4.10;;;2.22;;
17361;SDS011;8798;51.938;4.348;2023-06-26T00:29:48;6.65;;;2.10;;
17361;SDS011;8798;51.938;4.348;2023-06-26T00:32:16;3.83;;;2.08;;
17361;SDS011;8798;51.938;4.348;2023-06-26T00:34:44;6.05;;;2.15;;
17361;SDS011;8798;51.938;4.348;2023-06-26T00:37:14;5.57;;;2.47;;
17361;SDS011;8798;51.938;4.348;2023-06-26T00:39:42;5.25;;;2.50;;
17361;SDS011;8798;51.938;4.348;2023-06-26T00:42:10;6.00;;;2.72;;
17361;SDS011;8798;51.938;4.348;2023-06-26T00:44:38;7.47;;;2.55;;
17361;SDS011;8798;51.938;4.348;2023-06-26T00:47:06;4.32;;;2.10;;
17361;SDS011;8798;51.938;4.348;2023-06-26T00:49:35;8.60;;;2.58;;
17361;SDS011;8798;51.938;4.348;2023-06-26T00:52:03;5.95;;;2.28;;
17361;SDS011;8798;51.938;4.348;2023-06-26T00:54:33;5.20;;;2.30;;
17361;SDS011;8798;51.938;4.348;2023-06-26T00:57:01;6.65;;;2.95;;
17361;SDS011;8798;51.938;4.348;2023-06-26T00:59:29;5.97;;;2.60;;
17361;SDS011;8798;51.938;4.348;2023-06-26T01:01:57;8.95;;;2.92;;
17361;SDS011;8798;51.938;4.348;2023-06-26T01:04:25;7.82;;;2.67;;
17361;SDS011;8798;51.938;4.348;2023-06-26T01:06:54;6.85;;;2.75;;
17361;SDS011;8798;51.938;4.348;2023-06-26T01:09:23;6.97;;;2.85;;
17361;SDS011;8798;51.938;4.348;2023-06-26T01:11:52;6.40;;;2.83;;
17361;SDS011;8798;51.938;4.348;2023-06-26T01:14:20;7.82;;;2.85;;
17361;SDS011;8798;51.938;4.348;2023-06-26T01:16:48;8.38;;;2.95;;
17361;SDS011;8798;51.938;4.348;2023-06-26T01:19:19;7.75;;;2.75;;
17361;SDS011;8798;51.938;4.348;2023-06-26T01:21:54;9.32;;;3.00;;
17361;SDS011;8798;51.938;4.348;2023-06-26T01:24:31;11.05;;;3.60;;
17361;SDS011;8798;51.938;4.348;2023-06-26T01:27:04;9.07;;;3.10;;
17361;SDS011;8798;51.938;4.348;2023-06-26T01:29:33;5.97;;;2.45;;
17361;SDS011;8798;51.938;4.348;2023-06-26T01:32:03;7.60;;;2.50;;
17361;SDS011;8798;51.938;4.348;2023-06-26T01:34:33;5.97;;;2.67;;
17361;SDS011;8798;51.938;4.348;2023-06-26T01:37:01;8.60;;;2.67;;
17361;SDS011;8798;51.938;4.348;2023-06-26T01:39:29;6.40;;;2.60;;
17361;SDS011;8798;51.938;4.348;2023-06-26T01:41:57;7.53;;;2.90;;
17361;SDS011;8798;51.938;4.348;2023-06-26T01:44:28;5.63;;;2.92;;
17361;SDS011;8798;51.938;4.348;2023-06-26T01:46:59;11.85;;;3.08;;
17361;SDS011;8798;51.938;4.348;2023-06-26T01:49:31;5.60;;;2.67;;
17361;SDS011;8798;51.938;4.348;2023-06-26T01:52:07;9.07;;;2.97;;
17361;SDS011;8798;51.938;4.348;2023-06-26T01:54:44;9.75;;;2.92;;
17361;SDS011;8798;51.938;4.348;2023-06-26T01:57:18;6.30;;;2.40;;
17361;SDS011;8798;51.938;4.348;2023-06-26T01:59:51;9.43;;;2.97;;
17361;SDS011;8798;51.938;4.348;2023-06-26T02:02:20;6.72;;;2.70;;
17361;SDS011;8798;51.938;4.348;2023-06-26T02:04:48;8.38;;;2.55;;
17361;SDS011;8798;51.938;4.348;2023-06-26T02:07:16;7.13;;;2.92;;
17361;SDS011;8798;51.938;4.348;2023-06-26T02:09:44;10.70;;;3.40;;
17361;SDS011;8798;51.938;4.348;2023-06-26T02:12:12;9.27;;;3.17;;
17361;SDS011;8798;51.938;4.348;2023-06-26T02:14:40;7.40;;;2.95;;
17361;SDS011;8798;51.938;4.348;2023-06-26T02:17:09;9.60;;;3.22;;
17361;SDS011;8798;51.938;4.348;2023-06-26T02:19:37;10.20;;;3.38;;
17361;SDS011;8798;51.938;4.348;2023-06-26T02:22:14;7.10;;;2.70;;
17361;SDS011;8798;51.938;4.348;2023-06-26T02:24:43;7.55;;;2.92;;
17361;SDS011;8798;51.938;4.348;2023-06-26T02:27:11;6.00;;;2.67;;
17361;SDS011;8798;51.938;4.348;2023-06-26T02:29:39;7.35;;;2.40;;
17361;SDS011;8798;51.938;4.348;2023-06-26T02:32:09;8.10;;;2.85;;
17361;SDS011;8798;51.938;4.348;2023-06-26T02:34:37;7.45;;;2.83;;
17361;SDS011;8798;51.938;4.348;2023-06-26T02:37:05;6.47;;;2.78;;
17361;SDS011;8798;51.938;4.348;2023-06-26T02:39:34;7.45;;;2.80;;
17361;SDS011;8798;51.938;4.348;2023-06-26T02:42:02;5.40;;;3.08;;
17361;SDS011;8798;51.938;4.348;2023-06-26T02:44:31;8.02;;;2.67;;
17361;SDS011;8798;51.938;4.348;2023-06-26T02:46:59;9.52;;;2.53;;
17361;SDS011;8798;51.938;4.348;2023-06-26T02:49:28;10.93;;;3.25;;
17361;SDS011;8798;51.938;4.348;2023-06-26T02:51:56;9.43;;;2.97;;
17361;SDS011;8798;51.938;4.348;2023-06-26T02:54:24;7.13;;;3.20;;
17361;SDS011;8798;51.938;4.348;2023-06-26T02:56:52;7.90;;;3.08;;
17361;SDS011;8798;51.938;4.348;2023-06-26T02:59:20;7.30;;;3.08;;
17361;SDS011;8798;51.938;4.348;2023-06-26T03:01:48;7.75;;;2.72;;
17361;SDS011;8798;51.938;4.348;2023-06-26T03:04:16;5.20;;;2.40;;
17361;SDS011;8798;51.938;4.348;2023-06-26T03:06:48;7.65;;;2.70;;
17361;SDS011;8798;51.938;4.348;2023-06-26T03:09:16;7.88;;;2.90;;
17361;SDS011;8798;51.938;4.348;2023-06-26T03:11:44;8.77;;;2.72;;
17361;SDS011;8798;51.938;4.348;2023-06-26T03:14:12;6.55;;;2.95;;
17361;SDS011;8798;51.938;4.348;2023-06-26T03:16:40;6.00;;;2.35;;
17361;SDS011;8798;51.938;4.348;2023-06-26T03:19:08;6.25;;;2.45;;
17361;SDS011;8798;51.938;4.348;2023-06-26T03:21:36;6.65;;;2.38;;
17361;SDS011;8798;51.938;4.348;2023-06-26T03:24:06;7.85;;;2.75;;
17361;SDS011;8798;51.938;4.348;2023-06-26T16:37:36;2.67;;;0.90;;
17361;SDS011;8798;51.938;4.348;2023-06-26T16:40:05;2.20;;;1.13;;
17361;SDS011;8798;51.938;4.348;2023-06-26T16:42:33;2.22;;;1.25;;
17361;SDS011;8798;51.938;4.348;2023-06-26T16:45:02;1.88;;;0.90;;
17361;SDS011;8798;51.938;4.348;2023-06-26T16:47:30;3.20;;;1.00;;
17361;SDS011;8798;51.938;4.348;2023-06-26T16:50:04;2.85;;;1.10;;
17361;SDS011;8798;51.938;4.348;2023-06-26T16:52:33;1.17;;;0.90;;
17361;SDS011;8798;51.938;4.348;2023-06-26T16:55:03;3.97;;;0.90;;
17361;SDS011;8798;51.938;4.348;2023-06-26T16:57:31;2.30;;;1.05;;
17361;SDS011;8798;51.938;4.348;2023-06-26T16:59:59;2.25;;;1.10;;
17361;SDS011;8798;51.938;4.348;2023-06-26T17:02:28;1.95;;;0.88;;
17361;SDS011;8798;51.938;4.348;2023-06-26T17:04:57;2.17;;;0.90;;
17361;SDS011;8798;51.938;4.348;2023-06-26T17:07:25;1.77;;;0.90;;
17361;SDS011;8798;51.938;4.348;2023-06-26T17:09:55;8.48;;;1.58;;
17361;SDS011;8798;51.938;4.348;2023-06-26T17:12:25;3.15;;;1.23;;
17361;SDS011;8798;51.938;4.348;2023-06-26T17:14:53;7.53;;;1.20;;
17361;SDS011;8798;51.938;4.348;2023-06-26T17:17:21;2.33;;;1.10;;
17361;SDS011;8798;51.938;4.348;2023-06-26T17:19:49;2.55;;;1.10;;
17361;SDS011;8798;51.938;4.348;2023-06-26T17:22:17;1.40;;;0.80;;
17361;SDS011;8798;51.938;4.348;2023-06-26T17:24:45;1.52;;;0.90;;
17361;SDS011;8798;51.938;4.348;2023-06-26T17:27:13;2.90;;;1.00;;
17361;SDS011;8798;51.938;4.348;2023-06-26T17:29:45;2.17;;;0.90;;
17361;SDS011;8798;51.938;4.348;2023-06-26T17:32:13;1.70;;;0.90;;
17361;SDS011;8798;51.938;4.348;2023-06-26T17:34:48;4.50;;;2.00;;
17361;SDS011;8798;51.938;4.348;2023-06-26T17:37:16;2.17;;;1.10;;
17361;SDS011;8798;51.938;4.348;2023-06-26T17:39:44;2.60;;;1.15;;
17361;SDS011;8798;51.938;4.348;2023-06-26T17:42:12;2.85;;;1.10;;
17361;SDS011;8798;51.938;4.348;2023-06-26T17:44:41;2.85;;;1.20;;
17361;SDS011;8798;51.938;4.348;2023-06-26T17:47:10;4.10;;;1.23;;
17361;SDS011;8798;51.938;4.348;2023-06-26T17:49:38;4.75;;;1.20;;
17361;SDS011;8798;51.938;4.348;2023-06-26T17:52:07;3.10;;;0.90;;
17361;SDS011;8798;51.938;4.348;2023-06-26T17:54:35;4.00;;;1.10;;
17361;SDS011;8798;51.938;4.348;2023-06-26T17:57:03;1.58;;;0.93;;
17361;SDS011;8798;51.938;4.348;2023-06-26T17:59:31;1.80;;;1.00;;
17361;SDS011;8798;51.938;4.348;2023-06-26T18:01:59;2.42;;;0.90;;
17361;SDS011;8798;51.938;4.348;2023-06-26T18:04:30;2.85;;;1.30;;
17361;SDS011;8798;51.938;4.348;2023-06-26T18:06:58;3.50;;;0.98;;
17361;SDS011;8798;51.938;4.348;2023-06-26T18:09:26;1.70;;;0.95;;
17361;SDS011;8798;51.938;4.348;2023-06-26T18:11:54;2.88;;;1.08;;
17361;SDS011;8798;51.938;4.348;2023-06-26T18:14:22;1.83;;;1.20;;
17361;SDS011;8798;51.938;4.348;2023-06-26T18:16:50;5.03;;;1.25;;
17361;SDS011;8798;51.938;4.348;2023-06-26T18:19:18;4.40;;;1.20;;
17361;SDS011;8798;51.938;4.348;2023-06-26T18:21:47;2.30;;;0.93;;
17361;SDS011;8798;51.938;4.348;2023-06-26T18:24:15;2.47;;;0.93;;
17361;SDS011;8798;51.938;4.348;2023-06-26T18:26:43;1.80;;;1.08;;
17361;SDS011;8798;51.938;4.348;2023-06-26T18:29:11;3.72;;;1.10;;
17361;SDS011;8798;51.938;4.348;2023-06-26T18:31:39;2.58;;;1.13;;
17361;SDS011;8798;51.938;4.348;2023-06-26T18:34:07;3.08;;;1.45;;
17361;SDS011;8798;51.938;4.348;2023-06-26T18:36:35;3.67;;;1.30;;
17361;SDS011;8798;51.938;4.348;2023-06-26T18:39:05;2.38;;;1.20;;
17361;SDS011;8798;51.938;4.348;2023-06-26T18:41:33;3.55;;;1.27;;
17361;SDS011;8798;51.938;4.348;2023-06-26T18:44:01;1.27;;;0.85;;
17361;SDS011;8798;51.938;4.348;2023-06-26T18:46:29;1.70;;;0.98;;
17361;SDS011;8798;51.938;4.348;2023-06-26T18:49:00;2.92;;;0.98;;
17361;SDS011;8798;51.938;4.348;2023-06-26T18:51:29;4.15;;;1.10;;
17361;SDS011;8798;51.938;4.348;2023-06-26T18:53:57;3.20;;;1.00;;
17361;SDS011;8798;51.938;4.348;2023-06-26T18:56:28;1.65;;;1.00;;
17361;SDS011;8798;51.938;4.348;2023-06-26T18:58:56;1.50;;;0.80;;
17361;SDS011;8798;51.938;4.348;2023-06-26T19:01:24;4.03;;;1.05;;
17361;SDS011;8798;51.938;4.348;2023-06-26T19:03:52;3.25;;;0.82;;
17361;SDS011;8798;51.938;4.348;2023-06-26T19:06:20;3.45;;;1.00;;
17361;SDS011;8798;51.938;4.348;2023-06-26T19:08:48;1.63;;;0.93;;
17361;SDS011;8798;51.938;4.348;2023-06-26T19:11:17;2.30;;;1.10;;
17361;SDS011;8798;51.938;4.348;2023-06-26T19:13:46;2.35;;;0.80;;
17361;SDS011;8798;51.938;4.348;2023-06-26T19:16:14;1.95;;;1.05;;
17361;SDS011;8798;51.938;4.348;2023-06-26T19:18:43;2.90;;;1.10;;
17361;SDS011;8798;51.938;4.348;2023-06-26T19:21:11;2.60;;;0.98;;
17361;SDS011;8798;51.938;4.348;2023-06-26T19:23:39;3.22;;;0.90;;
17361;SDS011;8798;51.938;4.348;2023-06-26T19:26:07;2.28;;;1.08;;
17361;SDS011;8798;51.938;4.348;2023-06-26T19:28:35;1.15;;;0.82;;
17361;SDS011;8798;51.938;4.348;2023-06-26T19:31:04;2.35;;;1.10;;
17361;SDS011;8798;51.938;4.348;2023-06-26T19:33:32;1.80;;;0.98;;
17361;SDS011;8798;51.938;4.348;2023-06-26T19:36:00;1.90;;;1.15;;
17361;SDS011;8798;51.938;4.348;2023-06-26T19:38:28;3.67;;;1.30;;
17361;SDS011;8798;51.938;4.348;2023-06-26T19:40:56;2.88;;;1.05;;
17361;SDS011;8798;51.938;4.348;2023-06-26T19:43:24;1.50;;;1.15;;
17361;SDS011;8798;51.938;4.348;2023-06-26T19:45:52;1.85;;;1.20;;
17361;SDS011;8798;51.938;4.348;2023-06-26T19:48:21;3.53;;;1.15;;
17361;SDS011;8798;51.938;4.348;2023-06-26T19:50:49;3.20;;;1.45;;
17361;SDS011;8798;51.938;4.348;2023-06-26T19:53:17;4.85;;;1.25;;
17361;SDS011;8798;51.938;4.348;2023-06-26T19:55:45;4.13;;;1.17;;
17361;SDS011;8798;51.938;4.348;2023-06-26T19:58:13;2.63;;;1.15;;
17361;SDS011;8798;51.938;4.348;2023-06-26T20:00:41;3.03;;;1.23;;
17361;SDS011;8798;51.938;4.348;2023-06-26T20:03:10;1.67;;;1.13;;
17361;SDS011;8798;51.938;4.348;2023-06-26T20:05:39;8.60;;;1.35;;
17361;SDS011;8798;51.938;4.348;2023-06-26T20:08:08;2.45;;;0.90;;
17361;SDS011;8798;51.938;4.348;2023-06-26T20:10:36;2.95;;;1.17;;
17361;SDS011;8798;51.938;4.348;2023-06-26T20:13:04;2.78;;;1.00;;
17361;SDS011;8798;51.938;4.348;2023-06-26T20:15:32;3.40;;;1.17;;
17361;SDS011;8798;51.938;4.348;2023-06-26T20:18:00;3.38;;;1.05;;
17361;SDS011;8798;51.938;4.348;2023-06-26T20:20:28;3.65;;;0.98;;
17361;SDS011;8798;51.938;4.348;2023-06-26T20:22:57;2.58;;;1.15;;
17361;SDS011;8798;51.938;4.348;2023-06-26T20:25:27;4.80;;;1.13;;
17361;SDS011;8798;51.938;4.348;2023-06-26T20:27:56;3.53;;;1.20;;
17361;SDS011;8798;51.938;4.348;2023-06-26T20:30:24;2.42;;;1.00;;
17361;SDS011;8798;51.938;4.348;2023-06-26T20:32:52;2.25;;;1.00;;
17361;SDS011;8798;51.938;4.348;2023-06-26T20:35:19;4.15;;;1.33;;
17361;SDS011;8798;51.938;4.348;2023-06-26T20:37:48;2.83;;;1.20;;
17361;SDS011;8798;51.938;4.348;2023-06-26T20:40:17;2.95;;;1.15;;
17361;SDS011;8798;51.938;4.348;2023-06-26T20:42:46;2.88;;;1.30;;
17361;SDS011;8798;51.938;4.348;2023-06-26T20:45:15;4.22;;;1.30;;
17361;SDS011;8798;51.938;4.348;2023-06-26T20:47:43;2.58;;;1.20;;
17361;SDS011;8798;51.938;4.348;2023-06-26T20:50:12;3.13;;;1.20;;
17361;SDS011;8798;51.938;4.348;2023-06-26T20:52:42;2.92;;;1.20;;
17361;SDS011;8798;51.938;4.348;2023-06-26T20:55:11;2.17;;;1.10;;
17361;SDS011;8798;51.938;4.348;2023-06-26T20:57:41;6.85;;;1.48;;
